Terminal Aerodrome Forecast
Issued by NWS Cleveland, OH

Home | Current Version | Previous Version | Text Only | Print | Product List | Glossary Off
Versions: 1 2 3 4 5 6 7 8 9 10 11 12 13 14 15 16 17

000
FTUS41 KCLE 161740
TAFCAK
TAF
KCAK 161740Z 1618/1718 34012G20KT 4SM HZ OVC008
     FM162000 33010KT P6SM OVC015
     FM170100 31004KT P6SM OVC012
     FM170300 VRB03KT 5SM BR OVC008
     FM170700 VRB03KT 2SM BR OVC006
     FM171400 18008KT 5SM BR OVC014=

USA.gov is the U.S. government's official web portal to all federal, state and local government web resources and services.